Time;durP1;ratioP1;P1;durP2;ratioP2;P2;SDS_P1;SDS_P2;PMS_P1;PMS_P2;Temp;Humidity;BMP_temperature;BMP_pressure;BME280_temperature;BME280_humidity;BME280_pressure;Samples;Min_cycle;Max_cycle;Signal;HPM_P1;HPM_P2
2021/11/02 00:01:18;;;;;;;5.95;4.07;;;;;;;;;;4854146;29;20034;-80
2021/11/02 00:03:43;;;;;;;7.88;4.20;;;;;;;;;;4838269;29;20023;-80
2021/11/02 00:06:11;;;;;;;9.60;4.22;;;;;;;;;;4850434;29;20034;-80
2021/11/02 00:08:37;;;;;;;9.27;4.68;;;;;;;;;;4855947;29;20097;-79
2021/11/02 00:11:05;;;;;;;8.68;4.25;;;;;;;;;;4857753;29;20053;-80
2021/11/02 00:13:38;;;;;;;6.55;4.30;;;;;;;;;;4872043;29;20127;-81
2021/11/02 00:16:08;;;;;;;7.47;4.82;;;;;;;;;;4854816;29;20049;-79
2021/11/02 00:18:46;;;;;;;8.05;4.28;;;;;;;;;;4859457;29;20069;-80
2021/11/02 00:21:14;;;;;;;6.13;3.90;;;;;;;;;;4858011;29;20525;-80
2021/11/02 00:23:42;;;;;;;7.40;3.17;;;;;;;;;;4873322;29;20029;-80
2021/11/02 00:26:11;;;;;;;7.65;3.90;;;;;;;;;;4858002;29;20045;-80
2021/11/02 00:28:37;;;;;;;6.75;4.20;;;;;;;;;;4870267;29;20053;-80
2021/11/02 00:31:04;;;;;;;6.60;3.55;;;;;;;;;;4864519;29;20033;-80
2021/11/02 00:33:30;;;;;;;5.88;2.90;;;;;;;;;;4873208;29;20046;-80
2021/11/02 00:35:57;;;;;;;6.28;3.15;;;;;;;;;;4867574;29;20086;-81
2021/11/02 00:38:25;;;;;;;4.93;2.67;;;;;;;;;;4875731;29;20033;-81
2021/11/02 00:40:50;;;;;;;3.10;2.10;;;;;;;;;;4880195;29;20117;-81
2021/11/02 00:43:16;;;;;;;3.53;1.65;;;;;;;;;;4846389;29;20061;-81
2021/11/02 00:45:44;;;;;;;3.58;2.10;;;;;;;;;;4872512;29;20060;-80
2021/11/02 00:48:23;;;;;;;4.10;1.80;;;;;;;;;;4865464;29;20029;-81
2021/11/02 00:50:50;;;;;;;3.67;1.60;;;;;;;;;;4872919;29;20034;-82
2021/11/02 00:53:15;;;;;;;5.15;1.67;;;;;;;;;;4872966;29;20080;-80
2021/11/02 00:55:42;;;;;;;4.05;1.65;;;;;;;;;;4869494;29;20476;-80
2021/11/02 00:58:10;;;;;;;3.47;1.52;;;;;;;;;;4839537;29;20132;-80
2021/11/02 01:00:37;;;;;;;3.08;1.48;;;;;;;;;;4873151;29;20303;-80
2021/11/02 01:03:06;;;;;;;1.35;1.20;;;;;;;;;;4853166;29;20387;-80
2021/11/02 01:05:37;;;;;;;5.68;1.80;;;;;;;;;;4845795;29;20061;-80
2021/11/02 01:08:07;;;;;;;3.83;1.60;;;;;;;;;;4864544;29;20045;-79
2021/11/02 01:10:36;;;;;;;2.85;1.55;;;;;;;;;;4871084;29;20106;-80
2021/11/02 01:13:06;;;;;;;5.05;1.42;;;;;;;;;;4852356;29;20042;-82
2021/11/02 01:15:37;;;;;;;3.38;1.42;;;;;;;;;;4873300;29;20030;-81
2021/11/02 01:18:03;;;;;;;2.97;1.40;;;;;;;;;;4871245;29;20197;-80
2021/11/02 01:20:29;;;;;;;3.22;1.63;;;;;;;;;;4856537;29;20049;-80
2021/11/02 01:22:57;;;;;;;3.38;1.88;;;;;;;;;;4868287;29;20505;-81
2021/11/02 01:25:23;;;;;;;4.57;1.70;;;;;;;;;;4852540;29;20034;-81
2021/11/02 01:27:50;;;;;;;4.00;1.50;;;;;;;;;;4871872;29;20038;-80
2021/11/02 01:30:17;;;;;;;4.50;1.63;;;;;;;;;;4874244;29;20029;-80
2021/11/02 01:32:44;;;;;;;3.08;1.48;;;;;;;;;;4868347;29;20112;-81
2021/11/02 01:35:12;;;;;;;3.42;1.52;;;;;;;;;;4873656;29;20033;-80
2021/11/02 01:37:39;;;;;;;3.35;1.40;;;;;;;;;;4850166;29;20037;-80
2021/11/02 01:40:08;;;;;;;2.63;1.60;;;;;;;;;;4851711;29;20032;-80
2021/11/02 01:42:35;;;;;;;3.55;1.73;;;;;;;;;;4868889;29;20038;-79
2021/11/02 01:45:00;;;;;;;3.80;1.40;;;;;;;;;;4863535;29;20471;-79
2021/11/02 01:47:26;;;;;;;4.45;1.73;;;;;;;;;;4867057;29;20150;-80
2021/11/02 01:49:56;;;;;;;3.78;1.40;;;;;;;;;;4857704;29;20034;-79
2021/11/02 01:52:21;;;;;;;4.82;1.55;;;;;;;;;;4868035;29;20029;-80
2021/11/02 01:54:48;;;;;;;4.35;1.63;;;;;;;;;;4870825;29;20070;-80
2021/11/02 01:57:15;;;;;;;4.63;1.60;;;;;;;;;;4855206;29;20033;-79
2021/11/02 01:59:42;;;;;;;2.78;1.40;;;;;;;;;;4846783;29;20395;-81
2021/11/02 02:02:36;;;;;;;2.15;1.33;;;;;;;;;;4855620;29;20037;-82
2021/11/02 02:05:29;;;;;;;3.45;1.38;;;;;;;;;;4849891;29;20038;-81
2021/11/02 02:09:04;;;;;;;3.88;1.40;;;;;;;;;;4858629;29;20066;-82
2021/11/02 02:12:36;;;;;;;6.15;1.50;;;;;;;;;;4818365;29;20051;-82
2021/11/02 02:15:44;;;;;;;5.63;1.50;;;;;;;;;;4799514;30;20051;-80
2021/11/02 02:18:16;;;;;;;3.42;1.42;;;;;;;;;;4796901;29;20031;-80
2021/11/02 02:20:53;;;;;;;4.35;2.00;;;;;;;;;;4802509;29;20081;-80
2021/11/02 02:23:30;;;;;;;4.93;1.58;;;;;;;;;;4796838;29;20533;-80
2021/11/02 02:26:10;;;;;;;4.05;1.52;;;;;;;;;;4784850;30;20047;-80
2021/11/02 02:28:43;;;;;;;5.47;1.40;;;;;;;;;;4780216;30;20043;-80
2021/11/02 02:31:15;;;;;;;4.00;1.42;;;;;;;;;;4776691;30;20043;-80
2021/11/02 02:33:44;;;;;;;4.80;1.67;;;;;;;;;;4805947;29;20058;-80
2021/11/02 02:36:11;;;;;;;7.15;1.80;;;;;;;;;;4804610;29;20038;-80
2021/11/02 02:38:40;;;;;;;4.90;1.48;;;;;;;;;;4804299;29;20051;-79
2021/11/02 02:41:08;;;;;;;3.90;1.55;;;;;;;;;;4793408;30;20043;-81
2021/11/02 02:43:40;;;;;;;2.80;1.30;;;;;;;;;;4806639;29;20069;-80
2021/11/02 02:46:07;;;;;;;3.13;1.50;;;;;;;;;;4787070;30;20528;-80
2021/11/02 02:48:34;;;;;;;4.85;1.67;;;;;;;;;;4825224;29;20094;-80
2021/11/02 02:51:02;;;;;;;3.13;1.50;;;;;;;;;;4833096;29;20143;-79
2021/11/02 02:53:30;;;;;;;2.00;1.30;;;;;;;;;;4866903;29;20026;-79
2021/11/02 02:56:00;;;;;;;3.47;1.40;;;;;;;;;;4864569;29;20018;-79
2021/11/02 02:58:34;;;;;;;3.05;1.50;;;;;;;;;;4866866;29;20039;-79
2021/11/02 03:00:59;;;;;;;3.75;1.70;;;;;;;;;;4854238;29;20452;-80
2021/11/02 03:03:26;;;;;;;3.55;1.80;;;;;;;;;;4859906;29;20030;-80
2021/11/02 03:05:53;;;;;;;3.83;1.60;;;;;;;;;;4870989;29;20525;-81
2021/11/02 03:08:26;;;;;;;6.40;1.58;;;;;;;;;;4861297;29;20139;-80
2021/11/02 03:10:54;;;;;;;6.10;1.60;;;;;;;;;;4842741;29;20082;-81
2021/11/02 03:13:22;;;;;;;2.20;1.20;;;;;;;;;;4872213;29;20039;-81
2021/11/02 03:16:19;;;;;;;4.00;1.60;;;;;;;;;;4856609;29;20421;-81
2021/11/02 03:54:53;;;;;;;2.58;1.20;;;;;;;;;;4873026;29;20048;-80
2021/11/02 04:28:14;;;;;;;2.13;1.13;;;;;;;;;;4798114;30;20039;-80
2021/11/02 04:47:47;;;;;;;2.10;0.80;;;;;;;;;;4796954;30;20142;-79
2021/11/02 05:07:07;;;;;;;2.63;1.30;;;;;;;;;;4869267;29;20040;-81
2021/11/02 05:58:55;;;;;;;2.50;0.95;;;;;;;;;;4869478;29;20026;-81
2021/11/02 06:04:14;;;;;;;2.20;1.10;;;;;;;;;;4852886;29;20067;-80
2021/11/02 06:07:01;;;;;;;1.88;1.00;;;;;;;;;;4868978;29;20025;-80
2021/11/02 06:10:02;;;;;;;2.20;1.08;;;;;;;;;;4853078;29;20108;-82
2021/11/02 06:27:48;;;;;;;1.65;1.08;;;;;;;;;;4868793;29;20043;-79
2021/11/02 06:29:31;;;;;;;3.88;1.30;;;;;;;;;;4806046;29;20051;-79
2021/11/02 06:32:04;;;;;;;3.45;1.35;;;;;;;;;;4799292;29;20045;-79
2021/11/02 06:39:57;;;;;;;2.22;1.23;;;;;;;;;;4804851;29;20047;-79
2021/11/02 06:45:33;;;;;;;1.63;1.20;;;;;;;;;;4807464;29;20051;-79
2021/11/02 06:57:08;;;;;;;3.83;1.20;;;;;;;;;;4810257;29;20049;-79
2021/11/02 07:00:10;;;;;;;2.35;1.30;;;;;;;;;;4806403;29;20093;-78
2021/11/02 07:23:20;;;;;;;2.15;1.05;;;;;;;;;;4832236;29;20050;-78
2021/11/02 07:29:15;;;;;;;1.98;1.13;;;;;;;;;;4831496;29;20038;-79
2021/11/02 12:11:00;;;;;;;1.65;0.70;;;;;;;;;;5071022;23;20057;-86
2021/11/02 13:05:20;;;;;;;1.58;0.82;;;;;;;;;;5623725;23;20020;-88
2021/11/02 13:08:01;;;;;;;2.30;0.70;;;;;;;;;;4807088;29;20126;-88
2021/11/02 13:10:31;;;;;;;1.88;0.75;;;;;;;;;;4807369;29;20291;-89
2021/11/02 13:13:05;;;;;;;2.47;0.60;;;;;;;;;;4824665;29;20048;-88
2021/11/02 13:15:32;;;;;;;1.55;0.70;;;;;;;;;;4823848;29;20038;-88
2021/11/02 13:17:59;;;;;;;3.80;0.73;;;;;;;;;;4823755;29;20070;-89
2021/11/02 13:20:31;;;;;;;1.85;0.60;;;;;;;;;;4822686;29;20427;-86
2021/11/02 13:22:57;;;;;;;1.90;0.80;;;;;;;;;;4823788;29;20065;-86
2021/11/02 13:25:25;;;;;;;1.20;0.50;;;;;;;;;;4823973;29;20444;-85
2021/11/02 13:27:55;;;;;;;2.85;0.65;;;;;;;;;;4822506;29;20034;-85
2021/11/02 13:30:43;;;;;;;3.93;0.60;;;;;;;;;;4823672;29;20042;-85
2021/11/02 13:33:09;;;;;;;0.77;0.50;;;;;;;;;;4823708;29;20058;-85
2021/11/02 13:35:44;;;;;;;2.38;0.70;;;;;;;;;;4823283;29;20046;-85
2021/11/02 13:38:33;;;;;;;2.55;1.00;;;;;;;;;;4823563;29;20030;-86
2021/11/02 13:41:09;;;;;;;1.23;0.47;;;;;;;;;;4811719;29;20516;-86
2021/11/02 13:43:42;;;;;;;1.60;0.70;;;;;;;;;;4823680;29;22289;-85
2021/11/02 13:46:16;;;;;;;1.98;0.75;;;;;;;;;;4820633;29;20496;-86
2021/11/02 13:48:42;;;;;;;1.55;0.63;;;;;;;;;;4822955;29;20041;-86
2021/11/02 13:51:12;;;;;;;1.88;0.57;;;;;;;;;;4823429;29;20027;-86
2021/11/02 13:53:38;;;;;;;;;;;;;;;;;;4823281;29;20037;-86
2021/11/02 13:56:09;;;;;;;3.15;0.80;;;;;;;;;;4823624;29;19920;-87
2021/11/02 13:58:37;;;;;;;2.08;0.57;;;;;;;;;;4822294;29;20575;-89
2021/11/02 14:01:04;;;;;;;1.65;0.60;;;;;;;;;;4823872;29;20109;-88
2021/11/02 14:03:40;;;;;;;2.05;0.77;;;;;;;;;;4822972;29;20381;-89
2021/11/02 14:06:10;;;;;;;3.38;0.75;;;;;;;;;;4823301;29;20095;-89
2021/11/02 14:08:36;;;;;;;1.73;0.70;;;;;;;;;;4822685;29;20030;-90
2021/11/02 14:11:01;;;;;;;2.97;0.68;;;;;;;;;;4822113;29;20107;-89
2021/11/02 14:13:44;;;;;;;1.63;0.80;;;;;;;;;;4806916;29;20030;-89
2021/11/02 14:16:11;;;;;;;0.75;0.50;;;;;;;;;;4822767;29;20457;-89
2021/11/02 14:18:39;;;;;;;2.25;0.70;;;;;;;;;;4823478;29;20465;-90
2021/11/02 14:21:05;;;;;;;1.63;0.65;;;;;;;;;;4823075;29;20038;-89
2021/11/02 14:23:30;;;;;;;2.45;0.60;;;;;;;;;;4823160;29;20030;-89
2021/11/02 20:38:43;;;;;;;1.27;0.80;;;;;;;;;;5933734;23;21034;31
2021/11/02 20:41:19;;;;;;;2.00;0.95;;;;;;;;;;4822099;29;20114;-81
2021/11/02 20:43:56;;;;;;;2.30;1.00;;;;;;;;;;4831354;29;20058;-81
2021/11/02 20:46:24;;;;;;;7.43;1.10;;;;;;;;;;4830055;29;20137;-81
2021/11/02 20:48:56;;;;;;;1.52;0.93;;;;;;;;;;4836453;29;20052;-82
2021/11/02 20:51:24;;;;;;;2.35;1.20;;;;;;;;;;4812006;29;20065;-80
2021/11/02 20:53:50;;;;;;;1.00;0.90;;;;;;;;;;4826194;29;20045;-83
2021/11/02 20:56:16;;;;;;;2.63;0.93;;;;;;;;;;4828903;29;20042;-81
2021/11/02 20:58:45;;;;;;;3.25;1.38;;;;;;;;;;4834393;29;20711;-81
2021/11/02 21:01:12;;;;;;;3.38;1.20;;;;;;;;;;4818498;29;20054;-82
2021/11/02 21:03:38;;;;;;;9.75;4.80;;;;;;;;;;4833029;29;20038;-80
2021/11/02 21:06:09;;;;;;;10.63;5.10;;;;;;;;;;4836106;29;20057;-81
2021/11/02 21:08:44;;;;;;;5.68;3.55;;;;;;;;;;4834660;29;20030;-81
2021/11/02 21:11:11;;;;;;;2.85;1.80;;;;;;;;;;4830715;29;20118;-80
2021/11/02 21:13:39;;;;;;;3.55;1.50;;;;;;;;;;4830439;29;20072;-82
2021/11/02 21:16:07;;;;;;;3.25;1.23;;;;;;;;;;4828505;29;20046;-81
2021/11/02 21:18:35;;;;;;;2.85;1.33;;;;;;;;;;4813952;29;20030;-82
2021/11/02 21:21:03;;;;;;;1.55;1.02;;;;;;;;;;4831305;29;20113;-81
2021/11/02 21:23:29;;;;;;;2.60;1.20;;;;;;;;;;4829243;29;20037;-82
2021/11/02 21:25:56;;;;;;;3.63;1.20;;;;;;;;;;4826696;29;20046;-82
2021/11/02 21:28:24;;;;;;;2.30;0.98;;;;;;;;;;4828363;29;20046;-80
2021/11/02 21:30:58;;;;;;;3.22;1.17;;;;;;;;;;4828690;29;20043;-81
2021/11/02 21:33:29;;;;;;;2.92;1.15;;;;;;;;;;4825619;29;20034;-82
2021/11/02 21:35:57;;;;;;;1.60;1.13;;;;;;;;;;4822523;29;20047;-82
2021/11/02 21:38:25;;;;;;;2.35;1.20;;;;;;;;;;4839815;29;20507;-81
2021/11/02 21:41:01;;;;;;;1.60;1.02;;;;;;;;;;4810594;29;20066;-82
2021/11/02 21:43:38;;;;;;;3.17;1.30;;;;;;;;;;4832268;29;20060;-82
2021/11/02 21:46:12;;;;;;;3.03;1.25;;;;;;;;;;4833138;29;20125;-82
2021/11/02 21:49:05;;;;;;;2.25;0.90;;;;;;;;;;4831992;29;20089;-82
2021/11/02 21:51:52;;;;;;;3.63;1.30;;;;;;;;;;4764587;30;20071;-82
2021/11/02 21:54:31;;;;;;;2.97;1.17;;;;;;;;;;4757066;30;20082;-82
2021/11/02 21:57:04;;;;;;;2.65;1.40;;;;;;;;;;4762310;30;20060;-82
2021/11/02 21:59:52;;;;;;;2.63;1.10;;;;;;;;;;4761756;30;20051;-83
2021/11/02 22:03:05;;;;;;;1.42;0.90;;;;;;;;;;4756613;30;20063;-82
2021/11/02 22:06:43;;;;;;;2.83;1.20;;;;;;;;;;4766024;30;20040;-82
2021/11/02 22:09:12;;;;;;;1.50;0.98;;;;;;;;;;4766548;30;20075;-82
2021/11/02 22:11:42;;;;;;;3.58;1.10;;;;;;;;;;4777572;30;20112;-83
2021/11/02 22:14:09;;;;;;;5.43;1.20;;;;;;;;;;4755628;30;20113;-82
2021/11/02 22:16:35;;;;;;;2.50;1.30;;;;;;;;;;4757483;30;20048;-81
2021/11/02 22:19:06;;;;;;;2.25;1.13;;;;;;;;;;4777058;30;20047;-82
2021/11/02 22:21:35;;;;;;;2.08;1.20;;;;;;;;;;4767056;29;20044;-82
2021/11/02 22:24:01;;;;;;;1.67;1.20;;;;;;;;;;4760405;30;20044;-80
2021/11/02 22:26:29;;;;;;;3.78;1.30;;;;;;;;;;4733110;30;20036;-81
2021/11/02 22:28:55;;;;;;;3.45;1.38;;;;;;;;;;4771017;30;20043;-82
2021/11/02 22:31:22;;;;;;;2.83;1.20;;;;;;;;;;4775844;30;20482;-82
2021/11/02 22:33:51;;;;;;;1.92;1.20;;;;;;;;;;4790465;30;20044;-82
2021/11/02 22:36:24;;;;;;;1.80;1.20;;;;;;;;;;4797914;29;20513;-83
2021/11/02 22:39:57;;;;;;;2.65;1.13;;;;;;;;;;4767032;29;20039;-82
2021/11/02 22:42:23;;;;;;;3.72;1.20;;;;;;;;;;4806525;29;20046;-81
2021/11/02 22:45:03;;;;;;;2.25;0.95;;;;;;;;;;4798171;29;20068;-82
2021/11/02 22:47:36;;;;;;;1.67;1.23;;;;;;;;;;4808586;29;20051;-81
2021/11/02 22:50:46;;;;;;;1.70;1.10;;;;;;;;;;4779619;30;20498;-83
2021/11/02 22:53:16;;;;;;;1.88;1.10;;;;;;;;;;4763215;30;20437;-82
2021/11/02 22:55:44;;;;;;;2.63;1.20;;;;;;;;;;4761280;30;20043;-83
2021/11/02 22:58:11;;;;;;;2.33;1.25;;;;;;;;;;4760957;30;20538;-81
2021/11/02 23:00:49;;;;;;;1.77;1.10;;;;;;;;;;4772830;30;20035;-82
2021/11/02 23:03:19;;;;;;;2.17;1.38;;;;;;;;;;4759541;30;20480;-82
2021/11/02 23:05:48;;;;;;;2.55;1.20;;;;;;;;;;4773031;30;20093;-83
2021/11/02 23:08:17;;;;;;;2.60;1.30;;;;;;;;;;4770838;30;20117;-81
2021/11/02 23:10:44;;;;;;;1.75;0.90;;;;;;;;;;4755386;30;20471;-82
2021/11/02 23:13:12;;;;;;;3.15;1.10;;;;;;;;;;4770038;30;20280;-82
2021/11/02 23:15:38;;;;;;;2.53;1.25;;;;;;;;;;4769272;30;20045;-81
2021/11/02 23:18:06;;;;;;;2.53;1.20;;;;;;;;;;4770587;30;20059;-81
2021/11/02 23:20:37;;;;;;;2.85;1.20;;;;;;;;;;4769718;30;20083;-82
2021/11/02 23:23:42;;;;;;;3.53;1.27;;;;;;;;;;4772912;30;20039;-81
2021/11/02 23:26:32;;;;;;;3.40;1.52;;;;;;;;;;4790715;30;20513;-82
2021/11/02 23:29:02;;;;;;;1.70;0.80;;;;;;;;;;4812147;29;20033;-83
2021/11/02 23:31:30;;;;;;;1.38;1.00;;;;;;;;;;4794059;29;20127;-81
2021/11/02 23:33:56;;;;;;;2.00;0.90;;;;;;;;;;4824004;29;20035;-82
2021/11/02 23:36:23;;;;;;;2.83;1.10;;;;;;;;;;4802538;29;20058;-82
2021/11/02 23:38:51;;;;;;;3.88;1.38;;;;;;;;;;4809609;29;20548;-82
2021/11/02 23:41:24;;;;;;;2.90;1.20;;;;;;;;;;4777284;30;20056;-81
2021/11/02 23:43:49;;;;;;;1.23;0.85;;;;;;;;;;4761974;30;20039;-82
2021/11/02 23:46:17;;;;;;;3.88;1.20;;;;;;;;;;4791496;29;20031;-81
2021/11/02 23:48:44;;;;;;;2.03;0.80;;;;;;;;;;4792079;29;20060;-82
2021/11/02 23:51:12;;;;;;;1.45;0.98;;;;;;;;;;4794177;30;20047;-81
2021/11/02 23:53:43;;;;;;;1.92;0.90;;;;;;;;;;4793820;30;20035;-82
2021/11/02 23:56:10;;;;;;;2.08;1.05;;;;;;;;;;4788933;30;20048;-82
2021/11/02 23:58:37;;;;;;;2.80;1.02;;;;;;;;;;4777066;30;20044;-82
